Chadstone Weather > Observations for 19/03/21

Select Day:



Observations
Time Temp Hum DP Wind Gust Dir Rain >9am Press
C % C kph kph mm hPa
00:24 19.1 78 15.2 3.6 6.1 S 0.0 1013.5
00:54 18.8 80 15.3 1.1 3.6 S 0.0 1012.7
01:24 18.2 83 15.3 0.0 1.1 S 0.0 1012.5
01:54 18.0 85 15.4 0.0 3.6 SE 0.0 1012.4
02:24 17.8 85 15.2 2.5 6.1 SE 0.0 1012.4
02:54 17.5 85 14.9 0.0 0.0 N 0.0 1012.0
03:24 16.9 86 14.5 0.0 0.0 N 0.0 1012.0
03:54 16.6 87 14.4 0.0 0.0 N 0.0 1012.3
04:24 16.3 88 14.3 0.0 0.0 N 0.0 1012.2
04:54 16.0 88 14.0 0.0 0.0 N 0.0 1012.3
05:24 15.9 89 14.1 0.0 0.0 N 0.0 1012.2
05:54 15.8 90 14.2 0.0 1.1 N 0.0 1012.6
06:54 15.8 91 14.3 0.0 0.0 N 0.0 1013.1
07:10 15.8 91 14.3 0.0 0.0 N 0.0 1013.3
07:20 15.7 91 14.2 0.0 0.0 N 0.0 1013.7
07:30 15.8 92 14.5 0.0 1.1 NNE 0.0 1014.2
07:40 16.0 92 14.7 0.0 1.1 NNE 0.0 1014.5
07:50 16.1 92 14.8 0.0 1.1 N 0.0 1014.8
08:00 16.2 92 14.9 0.1 2.5 N 0.0 1014.9
08:10 16.4 92 15.1 0.0 2.5 NNE 0.0 1015.0
08:20 16.6 93 15.5 0.0 1.1 NE 0.0 1015.1
08:30 16.7 93 15.6 0.0 2.5 N 0.0 1015.4
08:40 16.7 93 15.6 0.4 3.6 NW 0.0 1015.4
08:50 16.7 93 15.6 0.0 0.0 N 0.0 1015.6
09:00 16.9 93 15.8 0.2 3.6 NW 0.0 1015.8
09:10 17.0 93 15.9 0.0 1.1 N 0.0 1015.9
09:20 17.2 93 16.1 0.3 6.1 NE 0.0 1016.1
09:30 17.2 93 16.1 0.5 6.1 NE 0.0 1016.1
09:40 17.2 92 15.9 0.1 3.6 NW 0.0 1016.4
09:50 17.3 92 16.0 0.7 6.1 N 0.0 1016.3
10:00 17.6 92 16.3 0.7 7.2 NNE 0.0 1016.5
10:10 17.7 92 16.4 2.0 6.1 NNE 0.0 1016.5
10:20 17.9 91 16.4 3.3 8.6 N 0.0 1016.5
10:30 18.3 91 16.8 3.7 11.2 N 0.0 1016.5
10:40 18.7 90 17.0 2.3 8.6 NNE 0.0 1016.5
10:50 18.9 89 17.1 2.3 8.6 N 0.0 1016.2
11:00 19.3 87 17.1 3.9 8.6 N 0.0 1016.1
11:10 19.6 86 17.2 1.8 6.1 NNW 0.0 1016.0
11:20 20.1 84 17.3 1.2 7.2 N 0.0 1015.8
11:30 20.5 83 17.5 3.6 9.7 N 0.0 1015.9
11:40 21.0 80 17.4 3.6 9.7 NE 0.0 1015.7
11:50 21.5 78 17.5 3.1 8.6 NNE 0.0 1015.4
12:00 21.7 76 17.3 2.6 7.2 N 0.0 1015.3
12:10 22.3 74 17.5 3.2 8.6 NNE 0.0 1015.2
12:20 22.9 73 17.8 1.7 7.2 NNE 0.0 1015.1
12:30 23.2 73 18.1 0.4 3.6 NNW 0.0 1015.0
12:40 23.7 70 17.9 0.9 6.1 NNE 0.0 1014.7
12:50 24.1 68 17.8 2.8 6.1 WSW 0.0 1014.5
13:00 24.5 66 17.8 3.7 9.7 SSE 0.0 1014.4
13:10 24.5 65 17.5 2.4 9.7 SSE 0.0 1014.4
13:20 25.0 64 17.7 1.0 8.6 SW 0.0 1014.2
13:30 25.4 63 17.9 2.5 7.2 ESE 0.0 1015.1
13:40 26.0 59 17.4 1.2 6.1 SE 0.0 1015.3
13:50 26.1 56 16.7 3.2 11.2 SSE 0.0 1015.2
14:00 26.0 55 16.3 2.5 6.1 SSE 0.0 1015.2
14:10 26.2 54 16.2 1.6 11.2 SE 0.0 1015.0
14:20 26.2 54 16.2 2.4 12.2 SSE 0.0 1014.8
14:30 26.4 53 16.1 2.1 11.2 S 0.0 1014.6
14:40 26.6 53 16.3 0.8 8.6 S 0.0 1014.5
14:50 26.7 54 16.6 3.2 13.3 SE 0.0 1014.5
15:00 26.9 54 16.8 1.6 12.2 S 0.0 1014.2
15:10 27.0 51 16.0 2.2 12.2 SSE 0.0 1014.0
15:20 27.1 51 16.1 4.1 15.8 SE 0.0 1013.8
15:30 27.3 52 16.6 2.4 12.2 SSE 0.0 1013.6
15:40 27.1 52 16.4 0.8 6.1 SSW 0.0 1013.6
15:50 27.0 51 16.0 0.4 6.1 E 0.0 1013.6
16:00 27.1 51 16.1 1.1 9.7 SSE 0.0 1013.4
16:10 27.1 50 15.8 2.1 11.2 S 0.0 1013.4
16:20 27.3 48 15.4 6.1 23.4 SSE 0.0 1013.2
16:30 27.4 48 15.4 5.8 23.4 SSE 0.0 1013.2
16:40 27.1 48 15.2 3.7 18.4 SSE 0.0 1013.2
16:50 27.1 48 15.2 6.3 19.4 SE 0.0 1013.3
17:00 27.0 46 14.4 10.8 25.6 SE 0.0 1013.4
17:10 26.7 47 14.5 9.9 22.0 SE 0.0 1013.0
17:20 26.4 48 14.5 7.2 22.0 ESE 0.0 1013.4
17:30 26.4 49 14.8 8.3 23.4 ESE 0.0 1013.2
17:40 26.1 49 14.6 10.0 22.0 SE 0.0 1013.3
17:50 25.7 51 14.8 9.7 23.4 SSE 0.0 1013.3
18:00 25.4 52 14.9 11.5 23.4 SE 0.0 1013.3
18:10 25.3 53 15.1 8.3 22.0 SE 0.0 1013.3
18:20 25.0 53 14.8 8.1 20.9 SSE 0.0 1013.3
18:30 24.6 55 15.0 10.5 22.0 SE 0.0 1013.3
18:40 24.3 56 15.0 9.0 23.4 SE 0.0 1013.2
18:50 23.9 58 15.2 10.4 24.5 SE 0.0 1013.3
19:00 23.8 58 15.1 11.3 25.6 SE 0.0 1013.4
19:10 23.6 59 15.1 6.8 20.9 SE 0.0 1013.4
19:20 23.4 59 14.9 12.0 22.0 SE 0.0 1013.6
19:30 23.2 60 15.0 11.5 25.6 ESE 0.0 1013.6
19:40 22.9 62 15.3 12.7 25.6 SSW 0.0 1013.7
19:50 22.7 62 15.1 9.0 22.0 ESE 0.0 1013.8
20:00 22.4 63 15.0 10.1 22.0 ESE 0.0 1013.7
20:10 22.2 63 14.8 10.6 23.4 SE 0.0 1014.0
20:20 22.0 64 14.9 8.6 23.4 SE 0.0 1014.1
20:30 21.8 66 15.2 8.7 28.1 SE 0.0 1014.2
20:40 21.6 67 15.2 9.4 29.5 SE 0.0 1014.3
20:50 21.4 68 15.3 11.0 23.4 SE 0.0 1014.6
21:00 21.2 68 15.1 10.9 24.5 ESE 0.0 1014.6
21:10 21.1 69 15.2 9.5 25.6 SSE 0.0 1015.0
21:20 20.8 71 15.4 10.1 25.6 SE 0.0 1015.1
21:30 20.7 72 15.5 11.0 25.6 SE 0.0 1015.2
21:40 20.7 73 15.7 9.4 18.4 SE 0.0 1015.2
21:50 20.6 73 15.6 8.9 23.4 ESE 0.0 1015.3
22:00 20.4 74 15.6 7.9 19.4 SE 0.0 1015.2
22:10 20.4 74 15.6 10.0 20.9 SE 0.0 1015.6
22:20 20.3 75 15.7 9.9 20.9 SE 0.0 1015.9
22:30 20.2 75 15.6 11.1 20.9 SSE 0.0 1016.1
22:40 20.1 75 15.5 9.7 19.4 SE 0.0 1016.4
22:50 20.0 76 15.7 9.1 18.4 SE 0.0 1015.2
23:00 20.0 76 15.7 8.5 19.4 ESE 0.0 1015.3
23:10 19.9 78 16.0 8.5 17.3 ESE 0.0 1015.9
23:20 19.8 78 15.9 5.7 15.8 SE 0.0 1014.8
23:30 19.7 78 15.8 7.7 19.4 SSE 0.0 1015.5
23:40 19.7 78 15.8 7.1 18.4 ESE 0.0 1014.5
23:50 19.6 79 15.9 7.2 14.8 SE 0.0 1015.1